Dublin, OH (43017)

4:26 AM EDT on September 03, 2015 (GMT -0400)
KOHDUBLI8 | | Change Station
CLOSE
Current Station
Personal Weather Station
Location: Dublin, OH
Elevation: 850 ft
Nearby Weather Stations

Elev 850 ft 40.09 °N, 83.12 °W | Updated 40 seconds ago

Partly Cloudy
Partly Cloudy
69.4 °F
Feels Like 69.4 °F
N
0.0
Wind Variable Wind from ENE
Gusts 0.0 mph

Today
High -- | Low -- °F
--% Chance of Precip.
Yesterday
High -- | Low -- °F
Precip. -- in
7:01 AM 8:01 PM
Waning Gibbous, 72% visible
Pressure 29.98 in
Visibility 8.0 miles
Clouds Few 10000 ft
Dew Point 67 °F
Humidity 91%
Rainfall 0.00 in
Snow Depth Not available.
UV 0.0 out of 12
Pollen 10.40 out of 12
Air Quality Not available.
Flu Activity Not available.
METAR KOSU 030753Z AUTO 26003KT 8SM FEW100 21/19 A3000 RMK AO2 SLP151 T02060194
Pressure 29.98 in
Visibility 8.0 miles
Clouds Few 10000 ft
Dew Point 67 °F
Humidity 91%
Rainfall 0.00 in
Snow Depth Not available.
UV 0.0 out of 12
Pollen 10.40 out of 12
Air Quality Not available.
Flu Activity Not available.
METAR KOSU 030753Z AUTO 26003KT 8SM FEW100 21/19 A3000 RMK AO2 SLP151 T02060194

10-Day Weather Forecast

×

Almanac

Astronomy

Sep. 03, 2015 Rise Set
Actual Time
Civil Twilight
Nautical Twilight
Astronomical Twilight
Moon
Length of Visible Light
Length of Day
Tomorrow will be .
, % of the Moon is Illuminated

Today's Extremes

State Highs State Lows

Community

WunderPhotos

Upload Photos

1,851,919 photos uploaded!

WunderBlogs® & News

Nearby

Air Quality

  Air Quality AQ Index Pollutant
Not available.

Snow Depth

Station Depth Elevation

Earthquake Activity

City Distance Mag. Time & Date
Minimum magnitude displayed is 2.5.

Coastal Water Temperatures

Place Temperature

Stations

Nearby Weather Stations

Station Location Temp. Windchill Dew Point Humidity Wind Precip. Elev Updated Type